Time;durP1;ratioP1;P1;durP2;ratioP2;P2;SDS_P1;SDS_P2;PMS_P1;PMS_P2;Temp;Humidity;BMP_temperature;BMP_pressure;BME280_temperature;BME280_humidity;BME280_pressure;Samples;Min_cycle;Max_cycle;Signal;HPM_P1;HPM_P2
2023/03/16 00:00:15;;;;;;;5.15;3.60;;;1.40;99.90;;;;;;5070017;28;20917;-66
2023/03/16 00:02:44;;;;;;;2.47;2.20;;;1.40;99.90;;;;;;5070845;28;20204;-65
2023/03/16 00:05:12;;;;;;;2.00;1.90;;;1.40;99.90;;;;;;5071552;28;20210;-66
2023/03/16 00:07:40;;;;;;;2.75;1.35;;;1.30;99.90;;;;;;5070880;28;20253;-65
2023/03/16 00:10:08;;;;;;;1.33;1.33;;;1.30;99.90;;;;;;5069255;28;20222;-66
2023/03/16 00:12:35;;;;;;;2.97;1.88;;;1.20;99.90;;;;;;5068956;28;20191;-66
2023/03/16 00:15:03;;;;;;;2.97;1.52;;;1.20;99.90;;;;;;5070977;28;20689;-66
2023/03/16 00:17:30;;;;;;;1.92;1.83;;;1.20;99.90;;;;;;5070264;28;20215;-66
2023/03/16 00:19:58;;;;;;;2.45;0.80;;;1.20;99.90;;;;;;5069834;28;20653;-66
2023/03/16 00:22:27;;;;;;;2.53;1.13;;;1.30;99.90;;;;;;5070633;28;20246;-66
2023/03/16 00:24:54;;;;;;;1.85;1.38;;;1.30;99.90;;;;;;5071305;28;20226;-66
2023/03/16 00:27:23;;;;;;;1.67;1.05;;;1.30;99.90;;;;;;5071669;28;20226;-65
2023/03/16 00:29:54;;;;;;;3.50;1.58;;;1.20;99.90;;;;;;5070136;28;20209;-66
2023/03/16 00:32:23;;;;;;;2.60;1.90;;;1.30;99.90;;;;;;5057589;28;20207;-65
2023/03/16 00:34:50;;;;;;;1.48;1.48;;;1.20;99.90;;;;;;5071192;28;20218;-66
2023/03/16 00:37:22;;;;;;;5.60;3.30;;;1.10;99.90;;;;;;5070643;28;20234;-66
2023/03/16 00:39:50;;;;;;;1.52;1.27;;;1.10;99.90;;;;;;5070384;28;20721;-65
2023/03/16 00:42:18;;;;;;;3.45;2.30;;;1.00;99.90;;;;;;5071458;28;20226;-66
2023/03/16 00:44:46;;;;;;;7.85;1.58;;;0.90;99.90;;;;;;5071377;28;20287;-65
2023/03/16 00:47:14;;;;;;;2.35;2.25;;;1.00;99.90;;;;;;5070828;28;20207;-66
2023/03/16 00:49:42;;;;;;;1.85;1.65;;;0.90;99.90;;;;;;5069524;28;20187;-66
2023/03/16 00:52:13;;;;;;;1.65;1.55;;;0.80;99.90;;;;;;5067456;28;20293;-65
2023/03/16 00:54:45;;;;;;;2.38;2.10;;;0.80;99.90;;;;;;5071112;28;20736;-66
2023/03/16 00:57:17;;;;;;;1.88;1.40;;;0.80;99.90;;;;;;5071332;28;20297;-65
2023/03/16 00:59:44;;;;;;;2.88;2.45;;;0.80;99.90;;;;;;5069580;28;20200;-66
2023/03/16 01:02:12;;;;;;;4.80;1.73;;;0.80;99.90;;;;;;5070235;28;20220;-66
2023/03/16 01:04:40;;;;;;;2.58;2.38;;;0.80;99.90;;;;;;5070845;28;20200;-66
2023/03/16 01:07:11;;;;;;;2.05;1.80;;;0.70;99.90;;;;;;5071062;28;20227;-65
2023/03/16 01:09:38;;;;;;;1.90;1.77;;;0.70;99.90;;;;;;5069066;28;20196;-66
2023/03/16 01:12:09;;;;;;;1.73;1.63;;;0.80;99.90;;;;;;5070895;28;20936;-65
2023/03/16 01:14:36;;;;;;;2.42;2.20;;;0.80;99.90;;;;;;5068668;28;20235;-66
2023/03/16 01:17:07;;;;;;;0.93;0.93;;;0.90;99.90;;;;;;5070714;28;20225;-66
2023/03/16 01:19:34;;;;;;;1.40;1.35;;;0.90;99.90;;;;;;5069524;28;20198;-67
2023/03/16 01:22:01;;;;;;;2.28;2.10;;;1.00;99.90;;;;;;5070172;28;20568;-66
2023/03/16 01:24:28;;;;;;;3.33;3.20;;;1.10;99.90;;;;;;5070159;28;20215;-65
2023/03/16 01:26:55;;;;;;;2.33;1.55;;;0.90;99.90;;;;;;5065628;28;20215;-68
2023/03/16 01:29:24;;;;;;;3.55;3.25;;;1.10;99.90;;;;;;5067772;28;20198;-65
2023/03/16 01:31:50;;;;;;;5.20;1.60;;;1.20;99.90;;;;;;5068826;28;20214;-66
2023/03/16 01:34:17;;;;;;;1.95;1.75;;;0.90;99.90;;;;;;5067834;28;20203;-68
2023/03/16 01:36:46;;;;;;;1.63;1.35;;;1.20;99.90;;;;;;5069941;28;20216;-66
2023/03/16 01:39:14;;;;;;;1.23;1.20;;;1.20;99.90;;;;;;5069430;28;20215;-65
2023/03/16 01:41:42;;;;;;;2.78;1.88;;;1.20;99.90;;;;;;5070396;28;20222;-65
2023/03/16 01:44:13;;;;;;;1.58;1.15;;;1.20;99.90;;;;;;5070211;28;20192;-65
2023/03/16 01:46:43;;;;;;;1.10;1.10;;;1.20;99.90;;;;;;5069837;28;20225;-65
2023/03/16 01:49:12;;;;;;;2.15;1.67;;;1.20;99.90;;;;;;5068708;28;20256;-66
2023/03/16 01:51:43;;;;;;;1.67;1.58;;;1.20;99.90;;;;;;5063601;28;20223;-65
2023/03/16 01:54:15;;;;;;;1.02;0.93;;;1.20;99.90;;;;;;5066186;28;20542;-66
2023/03/16 01:56:46;;;;;;;1.67;1.58;;;1.20;99.90;;;;;;5069722;28;20716;-65
2023/03/16 01:59:17;;;;;;;2.63;2.42;;;1.20;99.90;;;;;;5068947;28;20192;-65
2023/03/16 02:01:47;;;;;;;1.75;1.65;;;1.20;99.90;;;;;;5068858;28;20219;-65
2023/03/16 02:04:32;;;;;;;2.75;2.60;;;1.20;99.90;;;;;;5069697;28;20202;-66
2023/03/16 02:07:00;;;;;;;2.15;1.73;;;1.20;99.90;;;;;;5061687;28;20915;-65
2023/03/16 02:09:29;;;;;;;3.35;2.75;;;1.10;99.90;;;;;;5068461;28;20203;-66
2023/03/16 02:11:56;;;;;;;1.10;1.00;;;1.20;99.90;;;;;;5069775;28;20219;-65
2023/03/16 02:14:23;;;;;;;1.38;1.35;;;1.20;99.90;;;;;;5069900;28;20206;-65
2023/03/16 02:16:54;;;;;;;3.47;2.65;;;1.10;99.90;;;;;;5069485;28;20572;-66
2023/03/16 02:19:35;;;;;;;2.10;2.00;;;1.20;99.90;;;;;;5068121;28;20204;-65
2023/03/16 02:22:05;;;;;;;1.38;0.88;;;1.20;99.90;;;;;;5069754;28;20215;-65
2023/03/16 02:24:33;;;;;;;2.03;1.90;;;1.10;99.90;;;;;;5069644;28;20196;-66
2023/03/16 02:27:05;;;;;;;1.83;1.73;;;1.10;99.90;;;;;;5069748;28;20219;-65
2023/03/16 02:29:57;;;;;;;1.77;1.45;;;1.10;99.90;;;;;;5067858;28;20257;-66
2023/03/16 02:32:26;;;;;;;1.50;1.08;;;1.00;99.90;;;;;;5069680;28;20205;-65
2023/03/16 02:34:54;;;;;;;2.15;1.13;;;1.00;99.90;;;;;;5069361;28;20581;-66
2023/03/16 02:37:21;;;;;;;1.30;1.20;;;0.90;99.90;;;;;;5067808;28;20273;-66
2023/03/16 02:39:49;;;;;;;0.52;0.52;;;1.00;99.90;;;;;;5066786;28;20192;-65
2023/03/16 02:42:20;;;;;;;1.55;1.45;;;0.90;99.90;;;;;;5069157;28;20619;-66
2023/03/16 02:44:54;;;;;;;1.92;1.77;;;0.90;99.90;;;;;;5060293;28;20269;-66
2023/03/16 02:47:28;;;;;;;2.53;2.22;;;0.90;99.90;;;;;;5072679;28;20748;-65
2023/03/16 02:49:56;;;;;;;1.95;1.63;;;0.90;99.90;;;;;;5070846;28;20198;-65
2023/03/16 02:52:23;;;;;;;3.35;3.13;;;0.90;99.90;;;;;;5068814;28;20219;-65
2023/03/16 02:54:52;;;;;;;4.68;4.28;;;0.80;99.90;;;;;;5071965;28;20229;-66
2023/03/16 02:57:20;;;;;;;2.55;2.15;;;0.80;99.90;;;;;;5071390;28;20681;-66
2023/03/16 02:59:50;;;;;;;1.17;1.00;;;0.80;99.90;;;;;;5070507;28;20260;-67
2023/03/16 03:02:19;;;;;;;1.35;1.25;;;0.80;99.90;;;;;;5072690;28;20269;-66
2023/03/16 03:04:46;;;;;;;1.20;1.20;;;1.40;99.90;;;;;;5073501;28;20701;-66
2023/03/16 03:07:14;;;;;;;3.67;2.50;;;0.70;99.90;;;;;;5072400;28;20315;-66
2023/03/16 03:09:42;;;;;;;2.80;2.33;;;0.80;99.90;;;;;;5072023;28;20198;-66
2023/03/16 03:12:09;;;;;;;2.95;2.42;;;0.70;99.90;;;;;;5072943;28;20215;-65
2023/03/16 03:14:36;;;;;;;2.10;1.40;;;0.70;99.90;;;;;;5068681;28;20264;-66
2023/03/16 03:17:06;;;;;;;1.02;1.02;;;0.60;99.90;;;;;;5072474;28;20211;-65
2023/03/16 03:19:33;;;;;;;2.45;2.15;;;0.60;99.90;;;;;;5071739;28;20215;-65
2023/03/16 03:22:03;;;;;;;2.28;2.17;;;0.60;99.90;;;;;;5072927;28;20692;-65
2023/03/16 03:24:31;;;;;;;0.95;0.95;;;0.50;99.90;;;;;;5072960;28;20567;-66
2023/03/16 03:26:59;;;;;;;0.90;0.88;;;0.50;99.90;;;;;;5072832;28;20565;-65
2023/03/16 03:29:33;;;;;;;1.98;1.85;;;0.50;99.90;;;;;;5071669;28;20219;-66
2023/03/16 03:32:01;;;;;;;3.22;3.03;;;0.50;99.90;;;;;;5072516;28;20727;-66
2023/03/16 03:34:30;;;;;;;1.45;1.35;;;0.50;99.90;;;;;;5072063;28;20204;-65
2023/03/16 03:36:58;;;;;;;2.83;2.72;;;0.50;99.90;;;;;;5072226;28;20229;-65
2023/03/16 03:39:25;;;;;;;2.28;1.80;;;0.50;99.90;;;;;;5071210;28;20199;-66
2023/03/16 03:41:53;;;;;;;0.63;0.63;;;0.60;99.90;;;;;;5072665;28;20219;-66
2023/03/16 03:44:21;;;;;;;0.82;0.82;;;0.50;99.90;;;;;;5072737;28;20206;-65
2023/03/16 03:46:48;;;;;;;2.05;1.05;;;0.70;99.90;;;;;;5071081;28;20222;-66
2023/03/16 03:49:16;;;;;;;3.25;1.95;;;0.70;99.90;;;;;;5071574;28;20191;-66
2023/03/16 03:51:45;;;;;;;0.95;0.93;;;0.60;99.90;;;;;;5068156;28;20219;-65
2023/03/16 03:54:13;;;;;;;1.77;1.67;;;0.60;99.90;;;;;;5072401;28;20278;-66
2023/03/16 03:56:40;;;;;;;0.88;0.88;;;0.60;99.90;;;;;;5071924;28;20223;-66
2023/03/16 03:59:09;;;;;;;0.52;0.52;;;0.50;99.90;;;;;;5070397;28;20337;-66
2023/03/16 04:01:37;;;;;;;2.60;2.50;;;0.50;99.90;;;;;;5071873;28;20302;-65
2023/03/16 04:04:06;;;;;;;3.25;2.92;;;0.60;99.90;;;;;;5067478;28;20199;-66
2023/03/16 04:06:34;;;;;;;1.45;1.35;;;0.60;99.90;;;;;;5070690;28;20231;-66
2023/03/16 04:09:02;;;;;;;0.70;0.70;;;0.60;99.90;;;;;;5071154;28;20192;-66
2023/03/16 04:11:29;;;;;;;1.00;1.00;;;0.40;99.90;;;;;;5070739;28;20207;-66
2023/03/16 04:13:56;;;;;;;1.33;1.33;;;0.50;99.90;;;;;;5069250;28;20602;-66
2023/03/16 04:16:25;;;;;;;1.42;1.42;;;0.50;99.90;;;;;;5070743;28;20292;-65
2023/03/16 04:18:53;;;;;;;1.20;1.20;;;0.40;99.90;;;;;;5069913;28;20199;-65
2023/03/16 04:21:21;;;;;;;2.08;1.48;;;0.30;99.90;;;;;;5071145;28;20211;-65
2023/03/16 04:23:48;;;;;;;1.23;1.15;;;0.30;99.90;;;;;;5070090;28;20195;-67
2023/03/16 04:26:16;;;;;;;1.95;1.30;;;0.40;99.90;;;;;;5069660;28;20301;-66
2023/03/16 04:28:43;;;;;;;0.98;0.98;;;0.30;99.90;;;;;;5070528;28;20235;-65
2023/03/16 04:31:10;;;;;;;2.15;1.40;;;0.30;99.90;;;;;;5070159;28;20286;-65
2023/03/16 04:33:39;;;;;;;1.00;1.00;;;0.40;99.90;;;;;;5070220;28;20287;-66
2023/03/16 04:36:07;;;;;;;1.13;1.10;;;0.40;99.90;;;;;;5070010;28;20736;-65
2023/03/16 04:38:35;;;;;;;1.60;1.52;;;0.40;99.90;;;;;;5067945;28;21800;-66
2023/03/16 04:41:04;;;;;;;1.95;1.85;;;0.50;99.90;;;;;;5068991;28;20223;-67
2023/03/16 04:43:33;;;;;;;1.67;0.95;;;0.50;99.90;;;;;;5070271;28;20188;-65
2023/03/16 04:46:00;;;;;;;1.67;1.58;;;0.50;99.90;;;;;;5069811;28;20220;-66
2023/03/16 04:48:27;;;;;;;0.80;0.80;;;0.30;99.90;;;;;;5067820;28;20688;-65
2023/03/16 04:50:54;;;;;;;1.10;1.10;;;0.60;99.90;;;;;;5069014;28;20222;-66
2023/03/16 04:53:21;;;;;;;1.05;1.05;;;0.30;99.90;;;;;;5068090;28;20270;-65
2023/03/16 04:55:47;;;;;;;1.77;1.05;;;0.40;99.90;;;;;;5068461;28;20317;-67
2023/03/16 04:58:14;;;;;;;1.05;1.05;;;0.50;99.90;;;;;;5069010;28;20286;-66
2023/03/16 05:00:42;;;;;;;0.80;0.80;;;0.50;99.90;;;;;;5069377;28;20226;-66
2023/03/16 05:03:10;;;;;;;4.00;1.70;;;0.40;99.90;;;;;;5069368;28;20191;-67
2023/03/16 05:05:37;;;;;;;1.30;1.20;;;0.40;99.90;;;;;;5071241;28;20216;-66
2023/03/16 05:08:04;;;;;;;0.63;0.63;;;0.50;99.90;;;;;;5067564;28;20745;-66
2023/03/16 05:10:32;;;;;;;1.88;1.55;;;0.50;99.90;;;;;;5068283;28;20223;-66
2023/03/16 05:12:59;;;;;;;1.55;1.45;;;0.40;99.90;;;;;;5070189;28;20672;-65
2023/03/16 05:15:26;;;;;;;1.42;1.33;;;0.50;99.90;;;;;;5069315;28;20219;-65
2023/03/16 05:17:56;;;;;;;2.10;2.00;;;0.40;99.90;;;;;;5068946;28;20192;-65
2023/03/16 05:20:24;;;;;;;0.82;0.82;;;0.30;99.90;;;;;;5067262;28;20198;-66
2023/03/16 05:22:51;;;;;;;3.20;2.50;;;0.40;99.90;;;;;;5068812;28;20199;-67
2023/03/16 05:25:20;;;;;;;2.65;1.40;;;0.30;99.90;;;;;;5068256;28;20284;-65
2023/03/16 05:27:49;;;;;;;1.30;0.75;;;0.30;99.90;;;;;;5069523;28;20204;-66
2023/03/16 05:30:17;;;;;;;0.93;0.93;;;0.20;99.90;;;;;;5068685;28;20217;-66
2023/03/16 05:32:45;;;;;;;1.52;1.42;;;0.20;99.90;;;;;;5069259;28;20624;-65
2023/03/16 05:35:13;;;;;;;0.73;0.57;;;0.30;99.90;;;;;;5066621;28;20188;-66
2023/03/16 05:37:40;;;;;;;1.70;1.70;;;0.30;99.90;;;;;;5068862;28;20364;-65
2023/03/16 05:40:15;;;;;;;2.83;1.25;;;0.20;99.90;;;;;;5068911;28;20548;-65
2023/03/16 05:42:43;;;;;;;1.48;1.20;;;0.10;99.90;;;;;;5070348;28;20184;-66
2023/03/16 05:45:11;;;;;;;2.63;2.53;;;0.20;99.90;;;;;;5070525;28;20191;-66
2023/03/16 05:47:38;;;;;;;3.80;2.08;;;0.10;99.90;;;;;;5067924;28;20202;-66
2023/03/16 05:50:07;;;;;;;0.93;0.93;;;0.20;99.90;;;;;;5068807;28;20188;-66
2023/03/16 05:52:35;;;;;;;1.50;1.40;;;0.20;99.90;;;;;;5059615;28;20203;-65
2023/03/16 05:55:02;;;;;;;3.97;1.48;;;0.40;99.90;;;;;;5070360;28;20195;-65
2023/03/16 05:57:30;;;;;;;2.25;1.35;;;0.40;99.90;;;;;;5069537;28;20227;-66
2023/03/16 05:59:56;;;;;;;1.52;1.45;;;0.40;99.90;;;;;;5069553;28;20195;-67
2023/03/16 06:02:24;;;;;;;2.15;1.38;;;0.50;99.90;;;;;;5069270;28;20223;-66
2023/03/16 06:04:51;;;;;;;0.73;0.73;;;0.50;99.90;;;;;;5070160;28;20548;-66
2023/03/16 06:07:17;;;;;;;1.02;1.02;;;0.50;99.90;;;;;;5068436;28;20215;-67
2023/03/16 06:09:45;;;;;;;1.48;0.65;;;0.50;99.90;;;;;;5068480;28;20202;-66
2023/03/16 06:12:12;;;;;;;1.73;1.63;;;0.60;99.90;;;;;;5069809;28;20239;-66
2023/03/16 06:14:40;;;;;;;1.02;1.00;;;0.70;99.90;;;;;;5068762;28;20207;-65
2023/03/16 06:17:06;;;;;;;1.30;1.30;;;0.70;99.90;;;;;;5069547;28;20234;-67
2023/03/16 06:19:33;;;;;;;0.93;0.88;;;0.70;99.90;;;;;;5068106;28;20183;-67
2023/03/16 06:22:00;;;;;;;0.60;0.60;;;0.70;99.90;;;;;;5069832;28;20216;-66
2023/03/16 06:24:27;;;;;;;1.15;1.00;;;0.70;99.90;;;;;;5069612;28;20195;-67
2023/03/16 06:26:55;;;;;;;2.75;2.55;;;0.80;99.90;;;;;;5069032;28;20223;-67
2023/03/16 06:29:22;;;;;;;3.00;2.80;;;0.70;99.90;;;;;;5068227;28;20187;-68
2023/03/16 06:31:50;;;;;;;0.90;0.90;;;0.80;99.90;;;;;;5069256;28;20215;-67
2023/03/16 06:34:16;;;;;;;3.20;2.90;;;0.70;99.90;;;;;;5069635;28;20194;-67
2023/03/16 06:36:43;;;;;;;1.20;0.93;;;0.80;99.90;;;;;;5062602;28;20233;-67
2023/03/16 06:39:10;;;;;;;2.35;2.03;;;0.80;99.90;;;;;;5067694;28;20206;-67
2023/03/16 06:41:37;;;;;;;0.90;0.90;;;0.80;99.90;;;;;;5069063;28;20211;-68
2023/03/16 06:44:05;;;;;;;4.10;1.20;;;0.90;99.90;;;;;;5069088;28;20207;-67
2023/03/16 06:46:32;;;;;;;4.07;1.60;;;1.00;99.90;;;;;;5067542;28;20218;-67
2023/03/16 06:48:59;;;;;;;3.80;2.42;;;1.00;99.90;;;;;;5068744;28;20203;-67
2023/03/16 06:51:27;;;;;;;4.10;1.35;;;1.10;99.90;;;;;;5064658;28;20227;-69
2023/03/16 06:53:54;;;;;;;1.42;1.33;;;1.00;99.90;;;;;;5068838;28;20202;-69
2023/03/16 06:56:21;;;;;;;1.17;1.13;;;1.10;99.90;;;;;;5066830;28;20223;-68
2023/03/16 06:58:47;;;;;;;0.47;0.47;;;1.20;99.90;;;;;;5068163;28;20202;-67
2023/03/16 07:01:15;;;;;;;5.22;1.45;;;1.30;99.90;;;;;;5069190;28;20787;-65
2023/03/16 07:03:42;;;;;;;2.42;2.33;;;1.40;99.90;;;;;;5069180;28;20195;-66
2023/03/16 07:06:09;;;;;;;1.90;1.80;;;1.40;99.90;;;;;;5068916;28;20219;-65
2023/03/16 07:08:36;;;;;;;5.25;1.70;;;1.50;99.90;;;;;;5068093;28;20291;-65
2023/03/16 07:11:03;;;;;;;4.03;3.65;;;1.60;99.90;;;;;;5068494;28;20257;-65
2023/03/16 07:13:30;;;;;;;1.60;1.02;;;1.70;99.90;;;;;;5069573;28;20200;-65
2023/03/16 07:15:57;;;;;;;2.03;1.40;;;1.90;99.90;;;;;;5068933;28;20318;-66
2023/03/16 07:18:25;;;;;;;1.90;1.75;;;1.80;99.90;;;;;;5068005;28;20195;-65
2023/03/16 07:20:53;;;;;;;1.00;1.00;;;2.00;99.90;;;;;;5068131;28;20234;-65
2023/03/16 07:23:20;;;;;;;1.55;1.08;;;2.10;99.90;;;;;;5069243;28;20203;-66
2023/03/16 07:25:47;;;;;;;0.77;0.63;;;2.20;99.90;;;;;;5068435;28;20303;-65
2023/03/16 07:28:13;;;;;;;1.65;0.85;;;2.30;99.90;;;;;;5068598;28;20767;-65
2023/03/16 07:30:40;;;;;;;0.98;0.98;;;2.60;99.90;;;;;;5069095;28;20579;-68
2023/03/16 07:33:07;;;;;;;9.20;2.13;;;2.40;99.90;;;;;;5071514;28;20895;-67
2023/03/16 07:35:35;;;;;;;1.15;0.95;;;2.60;99.90;;;;;;5072194;28;20217;-67
2023/03/16 07:38:02;;;;;;;3.20;3.00;;;2.60;99.90;;;;;;5071351;28;20743;-68
2023/03/16 07:40:29;;;;;;;0.75;0.75;;;2.70;99.90;;;;;;5072050;28;20323;-68
2023/03/16 07:42:56;;;;;;;0.98;0.88;;;2.80;99.90;;;;;;5072284;28;20588;-67
2023/03/16 07:45:22;;;;;;;0.77;0.77;;;2.80;99.90;;;;;;5072271;28;20365;-67
2023/03/16 07:47:50;;;;;;;0.57;0.57;;;;;;;;;;5068686;28;20206;-65
2023/03/16 07:50:18;;;;;;;1.50;1.30;;;3.10;99.90;;;;;;5070518;28;20199;-65
2023/03/16 07:52:46;;;;;;;0.40;0.38;;;3.10;99.90;;;;;;5061760;28;20249;-66
2023/03/16 07:55:14;;;;;;;1.95;1.88;;;3.80;99.90;;;;;;5070141;28;20206;-66
2023/03/16 07:57:41;;;;;;;1.80;1.70;;;3.10;99.90;;;;;;5071843;28;20227;-66
2023/03/16 08:00:13;;;;;;;3.42;2.97;;;3.40;99.90;;;;;;5070348;28;20200;-66
2023/03/16 08:02:40;;;;;;;4.43;3.92;;;3.40;99.90;;;;;;5064845;28;20204;-66
2023/03/16 08:05:10;;;;;;;0.77;0.75;;;3.60;99.90;;;;;;5070832;28;20273;-66
2023/03/16 08:07:37;;;;;;;2.40;1.73;;;3.70;99.90;;;;;;5072188;28;20198;-66
2023/03/16 08:10:06;;;;;;;2.90;2.80;;;3.90;99.90;;;;;;5071343;28;20222;-66
2023/03/16 08:12:33;;;;;;;9.02;2.17;;;3.90;99.90;;;;;;5070343;28;20282;-66
2023/03/16 08:15:00;;;;;;;1.75;1.50;;;4.60;99.90;;;;;;5071227;28;20531;-66
2023/03/16 08:17:27;;;;;;;1.17;1.17;;;4.10;99.90;;;;;;5071789;28;20226;-66
2023/03/16 08:19:54;;;;;;;3.97;2.17;;;4.10;99.90;;;;;;5069366;28;20222;-66
2023/03/16 08:22:20;;;;;;;1.40;1.20;;;4.20;99.60;;;;;;5071769;28;20554;-65
2023/03/16 08:24:47;;;;;;;1.83;1.50;;;4.30;99.20;;;;;;5071934;28;20206;-66
2023/03/16 08:27:17;;;;;;;1.65;1.42;;;4.40;99.10;;;;;;5071595;28;20337;-66
2023/03/16 08:29:44;;;;;;;2.88;2.03;;;4.60;98.90;;;;;;5070184;28;20215;-66
2023/03/16 08:32:11;;;;;;;1.50;0.70;;;4.60;99.00;;;;;;5070867;28;20226;-66
2023/03/16 08:34:38;;;;;;;1.95;1.35;;;4.80;99.10;;;;;;5071733;28;20207;-67
2023/03/16 08:37:05;;;;;;;2.03;1.35;;;4.90;98.50;;;;;;5071178;28;20246;-66
2023/03/16 08:39:32;;;;;;;2.47;1.50;;;4.80;98.20;;;;;;5069814;28;20194;-65
2023/03/16 08:42:00;;;;;;;3.22;2.78;;;5.00;98.30;;;;;;5069542;28;20219;-66
2023/03/16 08:44:28;;;;;;;1.63;1.52;;;5.10;97.20;;;;;;5070657;28;20627;-66
2023/03/16 08:46:54;;;;;;;3.45;3.15;;;5.30;99.90;;;;;;5070800;28;20219;-66
2023/03/16 08:49:22;;;;;;;2.60;2.40;;;5.30;97.00;;;;;;5070187;28;20199;-66
2023/03/16 08:51:50;;;;;;;2.83;2.20;;;5.40;96.60;;;;;;5064152;28;20258;-66
2023/03/16 08:54:17;;;;;;;2.95;2.75;;;;;;;;;;5071086;28;20199;-66
2023/03/16 08:56:43;;;;;;;2.67;2.47;;;5.40;96.30;;;;;;5070792;28;20219;-66
2023/03/16 08:59:11;;;;;;;2.35;1.38;;;;;;;;;;5069239;28;20200;-67
2023/03/16 09:01:39;;;;;;;2.25;2.15;;;5.50;96.30;;;;;;5069987;28;20298;-68
2023/03/16 09:04:06;;;;;;;3.67;3.38;;;5.70;97.20;;;;;;5070391;28;20203;-66
2023/03/16 09:06:32;;;;;;;1.25;1.05;;;5.70;95.70;;;;;;5069925;28;20723;-66
2023/03/16 09:08:59;;;;;;;3.65;3.45;;;5.80;95.50;;;;;;5069777;28;20544;-67
2023/03/16 09:11:29;;;;;;;3.00;2.67;;;5.80;95.70;;;;;;5070467;28;20241;-66
2023/03/16 09:13:57;;;;;;;3.97;3.63;;;5.90;95.60;;;;;;5070518;28;20196;-66
2023/03/16 09:16:24;;;;;;;2.58;2.30;;;6.00;95.20;;;;;;5070200;28;20235;-65
2023/03/16 09:18:52;;;;;;;1.10;1.10;;;6.40;99.90;;;;;;5069963;28;20229;-66
2023/03/16 09:21:20;;;;;;;1.35;1.23;;;6.20;94.60;;;;;;5070071;28;20314;-66
2023/03/16 09:23:47;;;;;;;3.13;2.92;;;6.30;94.20;;;;;;5070878;28;20979;-65
2023/03/16 09:26:14;;;;;;;2.67;1.67;;;6.30;94.00;;;;;;5070073;28;20278;-66
2023/03/16 09:28:42;;;;;;;2.00;1.83;;;6.40;94.00;;;;;;5069159;28;20294;-66
2023/03/16 09:31:10;;;;;;;5.18;2.90;;;6.60;94.30;;;;;;5070815;28;20310;-65
2023/03/16 09:33:37;;;;;;;3.85;2.63;;;6.70;93.80;;;;;;5070025;28;20191;-67
2023/03/16 09:36:06;;;;;;;2.55;2.35;;;6.80;94.10;;;;;;5070682;28;20216;-65
2023/03/16 09:38:32;;;;;;;2.78;2.55;;;7.00;99.30;;;;;;5068074;28;20245;-67
2023/03/16 09:41:03;;;;;;;3.58;3.28;;;7.30;93.40;;;;;;5068146;28;20311;-66
2023/03/16 09:43:51;;;;;;;2.85;2.40;;;7.10;99.90;;;;;;5069022;28;21296;-65
2023/03/16 09:46:25;;;;;;;3.95;3.55;;;7.20;95.90;;;;;;5069684;28;20638;-66
2023/03/16 09:48:53;;;;;;;3.42;3.13;;;7.40;97.50;;;;;;5069636;28;20574;-66
2023/03/16 09:51:33;;;;;;;2.45;1.83;;;7.30;92.50;;;;;;5065164;28;20223;-66
2023/03/16 09:54:02;;;;;;;6.63;2.65;;;7.40;92.20;;;;;;5066833;28;20195;-65
2023/03/16 09:56:34;;;;;;;3.90;1.90;;;7.80;99.90;;;;;;5069784;28;20700;-66
2023/03/16 09:59:01;;;;;;;3.63;2.58;;;7.60;92.00;;;;;;5068397;28;20227;-66
2023/03/16 10:01:39;;;;;;;3.63;2.38;;;7.60;91.70;;;;;;5068700;28;20249;-66
2023/03/16 10:04:15;;;;;;;2.60;1.23;;;7.60;91.20;;;;;;5067767;28;20233;-66
2023/03/16 10:06:51;;;;;;;1.80;1.70;;;7.60;91.60;;;;;;5069574;28;20221;-66
2023/03/16 10:09:29;;;;;;;2.20;1.43;;;7.70;92.10;;;;;;5068926;28;20633;-65
2023/03/16 10:11:58;;;;;;;3.30;2.17;;;7.80;91.80;;;;;;5069839;28;20744;-66
2023/03/16 10:14:30;;;;;;;2.90;1.38;;;7.90;90.50;;;;;;5066645;28;20668;-66
2023/03/16 10:17:02;;;;;;;2.57;2.37;;;7.90;90.80;;;;;;5068932;28;20635;-65
2023/03/16 10:19:37;;;;;;;2.63;1.63;;;7.70;97.40;;;;;;5068432;28;20723;-66
2023/03/16 10:22:17;;;;;;;4.90;2.40;;;7.70;91.30;;;;;;5067937;28;20656;-66
2023/03/16 10:24:55;;;;;;;2.17;2.07;;;7.90;90.80;;;;;;5068403;28;20617;-66
2023/03/16 10:27:28;;;;;;;2.63;2.43;;;7.90;91.00;;;;;;5068027;28;20649;-65
2023/03/16 10:29:55;;;;;;;5.23;1.60;;;8.00;90.60;;;;;;5068395;28;20625;-66
2023/03/16 10:32:23;;;;;;;4.57;2.70;;;8.10;90.50;;;;;;5064776;28;21261;-65
2023/03/16 10:34:57;;;;;;;1.67;1.57;;;8.10;99.40;;;;;;5070491;28;20629;-65
2023/03/16 10:37:27;;;;;;;2.67;2.47;;;8.10;90.90;;;;;;5069511;28;20665;-66
2023/03/16 10:39:55;;;;;;;4.13;2.10;;;8.20;90.10;;;;;;5068045;28;20630;-65
2023/03/16 10:42:22;;;;;;;3.27;1.77;;;8.30;89.90;;;;;;5068379;28;20645;-66
2023/03/16 10:44:49;;;;;;;2.27;1.90;;;8.10;97.40;;;;;;5069288;28;20970;-66
2023/03/16 10:47:23;;;;;;;6.20;2.70;;;8.30;90.80;;;;;;5069564;28;20687;-66
2023/03/16 10:49:50;;;;;;;2.73;2.53;;;8.40;90.00;;;;;;5068387;28;20673;-66
2023/03/16 10:52:23;;;;;;;4.63;2.57;;;8.60;88.50;;;;;;5062908;28;20699;-66
2023/03/16 10:55:12;;;;;;;2.70;2.50;;;8.50;96.80;;;;;;5067611;28;20621;-67
2023/03/16 10:57:42;;;;;;;2.23;2.00;;;8.60;86.30;;;;;;5065052;28;20669;-66
2023/03/16 11:00:19;;;;;;;3.40;1.93;;;8.60;87.40;;;;;;5065125;28;20708;-66
2023/03/16 11:02:47;;;;;;;2.27;2.07;;;8.90;93.30;;;;;;5064862;28;21163;-67
2023/03/16 11:05:25;;;;;;;2.53;1.73;;;8.80;90.30;;;;;;5065830;28;20802;-68
2023/03/16 11:07:59;;;;;;;2.47;1.73;;;8.80;84.70;;;;;;5071657;28;20740;-67
2023/03/16 11:10:31;;;;;;;2.30;2.10;;;9.00;92.90;;;;;;5071430;28;21036;-67
2023/03/16 11:13:02;;;;;;;2.17;1.63;;;8.90;83.70;;;;;;5066179;28;20655;-66
2023/03/16 11:16:01;;;;;;;2.50;2.30;;;8.90;83.30;;;;;;5071979;28;20668;-68
2023/03/16 11:18:31;;;;;;;2.27;2.07;;;8.70;91.80;;;;;;5069019;28;20673;-68
2023/03/16 11:21:03;;;;;;;1.80;1.70;;;8.70;95.70;;;;;;5068839;28;20649;-67
2023/03/16 11:23:34;;;;;;;2.33;1.77;;;9.00;82.70;;;;;;5071548;28;20648;-67
2023/03/16 11:26:07;;;;;;;0.97;0.97;;;9.20;90.90;;;;;;5069172;28;20660;-67
2023/03/16 11:28:38;;;;;;;2.00;1.80;;;9.00;80.50;;;;;;5070440;28;20653;-67
2023/03/16 11:31:17;;;;;;;1.90;1.80;;;9.00;79.10;;;;;;5071736;28;20642;-66
2023/03/16 11:33:43;;;;;;;2.50;2.30;;;8.70;92.80;;;;;;5070000;28;20636;-66
2023/03/16 11:36:26;;;;;;;1.03;0.90;;;9.10;78.90;;;;;;5070422;28;21284;-67
2023/03/16 11:39:04;;;;;;;1.33;1.23;;;9.30;77.30;;;;;;5068928;28;20661;-67
2023/03/16 11:41:41;;;;;;;1.80;1.40;;;9.10;77.80;;;;;;5070514;28;20656;-68
2023/03/16 11:44:16;;;;;;;1.30;1.20;;;9.20;89.40;;;;;;5069570;28;20625;-66
2023/03/16 11:46:53;;;;;;;0.80;0.80;;;9.60;92.80;;;;;;5069624;28;20649;-67
2023/03/16 11:49:41;;;;;;;0.97;0.90;;;9.50;96.80;;;;;;5070830;28;20649;-67
2023/03/16 11:52:16;;;;;;;1.30;1.20;;;9.20;76.60;;;;;;5066881;28;20652;-67
2023/03/16 11:54:53;;;;;;;1.37;1.27;;;9.40;93.10;;;;;;5069324;28;20698;-67
2023/03/16 11:57:32;;;;;;;1.77;1.67;;;9.20;92.90;;;;;;5068318;28;20697;-67
2023/03/16 12:00:07;;;;;;;2.70;1.30;;;9.50;77.30;;;;;;5069951;28;20617;-67
2023/03/16 12:02:44;;;;;;;1.17;0.53;;;9.50;96.30;;;;;;5072029;28;20625;-67
2023/03/16 12:05:25;;;;;;;3.00;1.60;;;9.60;75.20;;;;;;5072182;28;21009;-67
2023/03/16 12:08:04;;;;;;;0.80;0.80;;;9.50;96.10;;;;;;5072115;28;20625;-67
2023/03/16 12:10:35;;;;;;;1.07;1.07;;;9.70;76.00;;;;;;5071119;28;20637;-67
2023/03/16 12:13:19;;;;;;;1.17;0.90;;;9.80;97.70;;;;;;5065422;28;20627;-66
2023/03/16 12:15:50;;;;;;;0.90;0.90;;;9.70;96.20;;;;;;5071160;28;20645;-67
2023/03/16 12:18:21;;;;;;;2.10;1.63;;;9.80;76.70;;;;;;5065869;28;21033;-67
2023/03/16 12:20:53;;;;;;;1.10;0.73;;;9.60;91.60;;;;;;5069357;28;20661;-67
2023/03/16 12:23:24;;;;;;;1.63;1.53;;;10.20;80.40;;;;;;5066183;28;20622;-67
2023/03/16 12:25:52;;;;;;;1.17;1.07;;;10.00;73.30;;;;;;5066751;28;20648;-69
2023/03/16 12:28:24;;;;;;;2.37;1.20;;;10.00;73.60;;;;;;5060333;28;20630;-68
2023/03/16 12:31:10;;;;;;;0.70;0.70;;;10.10;74.10;;;;;;5067618;28;21012;-67
2023/03/16 12:33:52;;;;;;;0.60;0.40;;;10.30;92.70;;;;;;5068309;28;20628;-66
2023/03/16 12:36:43;;;;;;;1.33;1.23;;;9.90;71.20;;;;;;5069264;28;20691;-67
2023/03/16 12:39:17;;;;;;;0.80;0.80;;;10.20;95.50;;;;;;5068041;28;20666;-67
2023/03/16 12:41:58;;;;;;;1.63;1.53;;;10.50;96.40;;;;;;5067977;28;21269;-67
2023/03/16 12:44:35;;;;;;;1.13;1.03;;;10.60;71.00;;;;;;5067691;28;20632;-66
2023/03/16 12:47:11;;;;;;;1.60;1.50;;;10.80;69.80;;;;;;5066425;28;20653;-67
2023/03/16 12:49:38;;;;;;;3.43;1.70;;;;;;;;;;5067366;28;20991;-67
2023/03/16 12:52:07;;;;;;;1.13;0.83;;;11.20;66.20;;;;;;5067147;28;21010;-67
2023/03/16 12:54:34;;;;;;;2.30;2.10;;;;;;;;;;5067824;28;20643;-67
2023/03/16 12:57:03;;;;;;;0.40;0.40;;;11.60;90.50;;;;;;5068809;28;20772;-66
2023/03/16 12:59:42;;;;;;;0.77;0.67;;;11.40;65.20;;;;;;5065462;28;20683;-67
2023/03/16 13:02:15;;;;;;;9.00;1.27;;;11.50;63.90;;;;;;5067743;28;20641;-66
2023/03/16 13:04:45;;;;;;;5.47;1.40;;;11.70;92.10;;;;;;5069689;28;20631;-67
2023/03/16 13:07:18;;;;;;;1.80;1.57;;;11.40;63.00;;;;;;5068714;28;21313;-67
2023/03/16 13:09:48;;;;;;;0.60;0.60;;;11.40;91.90;;;;;;5068565;28;20992;-67